Flight Number: AVA3037 Duration: 2:45
Departure: Manaus Eduardo Gomes Intl (SBEG) at 04:00 Distance: 966.74 Nm
Arrival: Bogota Eldorado (SKBO) at 06:45 Equipment: B737

Weather Information
Eduardo Gomes International, Brazil (SBEG) 03-02S 060-03W Jul 13, 2020 - 07:00 PM EDT / 2020.07.13 2300 UTC
Wind: Calm:0
Visibility: greater than 7 mile(s):0
Sky conditions: mostly clear Weather: thunder in the vicinity; Cumulonimbus clouds observed Temperature: 82 F (28 C) Dew Point: 77 F (25 C) Relative Humidity: 83% Pressure (altimeter): 29.88 in. Hg (1012 hPa)
ob: SBEG 132300Z 00000KT 9999 VCTS FEW020 FEW025CB 28/25 Q1012 cycle: 23
Sunrise: 10:09 Sunset: 22:02 (UTC)

Bogota / Eldorado, Colombia (SKBO) 04-43N 074-09W 2548M Jul 13, 2020 - 07:00 PM EDT / 2020.07.13 2300 UTC
Wind: from the SE (140 degrees) at 8 MPH (7 KT):0
Visibility: greater than 7 mile(s):0
Sky conditions: partly cloudy Weather: light drizzle Temperature: 57 F (14 C) Dew Point: 50 F (10 C) Relative Humidity: 76% Pressure (altimeter): 30.32 in. Hg (1026 hPa)
ob: SKBO 132300Z 14007KT 9999 -DZ SCT020 SCT080 14/10 A3032 NOSIG cycle: 23
Sunrise: 10:53 Sunset: 23:11 (UTC)

TAF:2020/07/13 18:42 TAF TAF SKBO 131630Z 1318/1418 13010KT 9999 BKN020 SCT080 BECMG 1321/1322 28010KT PROB40 TEMPO 1320/1324 DZ BECMG 1401/1403 03004KT FEW017 SCT070 TX19/1318Z TN10/1410Z

This route has never been flown.

Route map